sensor_id;sensor_type;location;lat;lon;timestamp;temperature;humidity
15455;DHT22;21057;51.024;7.540;2023-09-19T00:00:56;16.80;99.90
15455;DHT22;21057;51.024;7.540;2023-09-19T00:03:23;16.80;99.90
15455;DHT22;21057;51.024;7.540;2023-09-19T00:05:51;16.70;99.90
15455;DHT22;21057;51.024;7.540;2023-09-19T00:08:18;16.80;99.90
15455;DHT22;21057;51.024;7.540;2023-09-19T00:10:48;16.80;99.90
15455;DHT22;21057;51.024;7.540;2023-09-19T00:13:15;16.60;99.90
15455;DHT22;21057;51.024;7.540;2023-09-19T00:15:44;16.60;99.90
15455;DHT22;21057;51.024;7.540;2023-09-19T00:18:14;16.70;99.90
15455;DHT22;21057;51.024;7.540;2023-09-19T00:20:42;16.60;99.90
15455;DHT22;21057;51.024;7.540;2023-09-19T00:23:14;16.50;99.90
15455;DHT22;21057;51.024;7.540;2023-09-19T00:25:41;16.50;99.90
15455;DHT22;21057;51.024;7.540;2023-09-19T00:28:08;16.60;99.90
15455;DHT22;21057;51.024;7.540;2023-09-19T00:30:35;16.40;99.90
15455;DHT22;21057;51.024;7.540;2023-09-19T00:33:04;16.40;99.90
15455;DHT22;21057;51.024;7.540;2023-09-19T00:35:33;16.40;99.90
15455;DHT22;21057;51.024;7.540;2023-09-19T00:38:00;16.10;99.90
15455;DHT22;21057;51.024;7.540;2023-09-19T00:40:28;16.30;99.90
15455;DHT22;21057;51.024;7.540;2023-09-19T00:42:58;16.10;99.90
15455;DHT22;21057;51.024;7.540;2023-09-19T00:45:25;16.20;99.90
15455;DHT22;21057;51.024;7.540;2023-09-19T00:47:53;16.20;99.90
15455;DHT22;21057;51.024;7.540;2023-09-19T00:50:23;16.10;99.90
15455;DHT22;21057;51.024;7.540;2023-09-19T00:52:53;16.20;99.90
15455;DHT22;21057;51.024;7.540;2023-09-19T00:55:21;16.30;99.90
15455;DHT22;21057;51.024;7.540;2023-09-19T00:57:51;16.20;99.90
15455;DHT22;21057;51.024;7.540;2023-09-19T01:00:18;16.20;99.90
15455;DHT22;21057;51.024;7.540;2023-09-19T01:02:47;16.20;99.90
15455;DHT22;21057;51.024;7.540;2023-09-19T01:05:14;16.20;99.90
15455;DHT22;21057;51.024;7.540;2023-09-19T01:07:41;16.10;99.90
15455;DHT22;21057;51.024;7.540;2023-09-19T01:10:11;16.10;99.90
15455;DHT22;21057;51.024;7.540;2023-09-19T01:12:48;16.00;99.90
15455;DHT22;21057;51.024;7.540;2023-09-19T01:15:21;16.10;99.90
15455;DHT22;21057;51.024;7.540;2023-09-19T01:17:55;15.90;99.90
15455;DHT22;21057;51.024;7.540;2023-09-19T01:20:35;15.90;99.90
15455;DHT22;21057;51.024;7.540;2023-09-19T01:23:12;15.80;99.90
15455;DHT22;21057;51.024;7.540;2023-09-19T01:25:57;15.90;99.90
15455;DHT22;21057;51.024;7.540;2023-09-19T01:28:42;15.90;99.90
15455;DHT22;21057;51.024;7.540;2023-09-19T01:31:14;16.00;99.90
15455;DHT22;21057;51.024;7.540;2023-09-19T01:33:54;16.10;99.90
15455;DHT22;21057;51.024;7.540;2023-09-19T01:36:23;16.20;99.90
15455;DHT22;21057;51.024;7.540;2023-09-19T01:38:50;16.30;99.90
15455;DHT22;21057;51.024;7.540;2023-09-19T01:41:23;16.20;99.90
15455;DHT22;21057;51.024;7.540;2023-09-19T01:43:52;16.20;99.90
15455;DHT22;21057;51.024;7.540;2023-09-19T01:46:25;16.30;99.90
15455;DHT22;21057;51.024;7.540;2023-09-19T01:49:03;16.30;99.90
15455;DHT22;21057;51.024;7.540;2023-09-19T01:51:37;16.40;99.90
15455;DHT22;21057;51.024;7.540;2023-09-19T01:54:10;16.40;99.90
15455;DHT22;21057;51.024;7.540;2023-09-19T01:56:45;16.40;99.90
15455;DHT22;21057;51.024;7.540;2023-09-19T01:59:16;16.60;99.90
15455;DHT22;21057;51.024;7.540;2023-09-19T02:01:46;16.50;99.90
15455;DHT22;21057;51.024;7.540;2023-09-19T02:04:13;16.50;99.90
15455;DHT22;21057;51.024;7.540;2023-09-19T02:06:40;16.50;99.90
15455;DHT22;21057;51.024;7.540;2023-09-19T02:09:07;16.30;99.90
15455;DHT22;21057;51.024;7.540;2023-09-19T02:11:34;16.40;99.90
15455;DHT22;21057;51.024;7.540;2023-09-19T02:14:02;16.30;99.90
15455;DHT22;21057;51.024;7.540;2023-09-19T02:16:30;16.20;99.90
15455;DHT22;21057;51.024;7.540;2023-09-19T02:18:58;16.30;99.90
15455;DHT22;21057;51.024;7.540;2023-09-19T02:21:25;16.30;99.90
15455;DHT22;21057;51.024;7.540;2023-09-19T02:23:54;16.20;99.90
15455;DHT22;21057;51.024;7.540;2023-09-19T02:26:21;16.20;99.90
15455;DHT22;21057;51.024;7.540;2023-09-19T02:28:50;16.20;99.90
15455;DHT22;21057;51.024;7.540;2023-09-19T02:31:18;16.40;99.90
15455;DHT22;21057;51.024;7.540;2023-09-19T02:33:45;16.40;99.90
15455;DHT22;21057;51.024;7.540;2023-09-19T02:36:13;16.40;99.90
15455;DHT22;21057;51.024;7.540;2023-09-19T02:38:42;16.20;99.90
15455;DHT22;21057;51.024;7.540;2023-09-19T02:41:09;16.00;99.90
15455;DHT22;21057;51.024;7.540;2023-09-19T02:43:36;15.80;99.90
15455;DHT22;21057;51.024;7.540;2023-09-19T02:46:03;15.90;99.90
15455;DHT22;21057;51.024;7.540;2023-09-19T02:48:30;15.90;99.90
15455;DHT22;21057;51.024;7.540;2023-09-19T02:50:57;16.00;99.90
15455;DHT22;21057;51.024;7.540;2023-09-19T02:53:26;15.80;99.90
15455;DHT22;21057;51.024;7.540;2023-09-19T02:55:53;15.70;99.90
15455;DHT22;21057;51.024;7.540;2023-09-19T02:58:20;15.70;99.90
15455;DHT22;21057;51.024;7.540;2023-09-19T03:00:48;15.80;99.90
15455;DHT22;21057;51.024;7.540;2023-09-19T03:03:17;15.80;99.90
15455;DHT22;21057;51.024;7.540;2023-09-19T03:05:44;15.70;99.90
15455;DHT22;21057;51.024;7.540;2023-09-19T03:08:12;15.70;99.90
15455;DHT22;21057;51.024;7.540;2023-09-19T03:10:42;15.90;99.90
15455;DHT22;21057;51.024;7.540;2023-09-19T03:13:09;16.00;99.90
15455;DHT22;21057;51.024;7.540;2023-09-19T03:15:36;16.10;99.90
15455;DHT22;21057;51.024;7.540;2023-09-19T03:18:04;15.90;99.90
15455;DHT22;21057;51.024;7.540;2023-09-19T03:20:31;15.90;99.90
15455;DHT22;21057;51.024;7.540;2023-09-19T03:22:58;15.80;99.90
15455;DHT22;21057;51.024;7.540;2023-09-19T03:25:25;15.80;99.90
15455;DHT22;21057;51.024;7.540;2023-09-19T03:27:56;15.80;99.90
15455;DHT22;21057;51.024;7.540;2023-09-19T03:30:23;15.60;99.90
15455;DHT22;21057;51.024;7.540;2023-09-19T03:32:52;15.70;99.90
15455;DHT22;21057;51.024;7.540;2023-09-19T03:35:18;15.70;99.90
15455;DHT22;21057;51.024;7.540;2023-09-19T03:37:45;15.60;99.90
15455;DHT22;21057;51.024;7.540;2023-09-19T03:40:12;15.50;99.90
15455;DHT22;21057;51.024;7.540;2023-09-19T03:42:40;15.50;99.90
15455;DHT22;21057;51.024;7.540;2023-09-19T03:45:09;15.30;99.90
15455;DHT22;21057;51.024;7.540;2023-09-19T03:47:38;15.30;99.90
15455;DHT22;21057;51.024;7.540;2023-09-19T03:50:06;15.40;99.90
15455;DHT22;21057;51.024;7.540;2023-09-19T03:52:34;15.30;99.90
15455;DHT22;21057;51.024;7.540;2023-09-19T03:55:00;15.30;99.90
15455;DHT22;21057;51.024;7.540;2023-09-19T03:57:30;15.30;99.90
15455;DHT22;21057;51.024;7.540;2023-09-19T03:59:57;15.20;99.90
15455;DHT22;21057;51.024;7.540;2023-09-19T04:02:25;15.10;99.90
15455;DHT22;21057;51.024;7.540;2023-09-19T04:04:58;15.10;99.90
15455;DHT22;21057;51.024;7.540;2023-09-19T04:07:25;15.10;99.90
15455;DHT22;21057;51.024;7.540;2023-09-19T04:09:54;15.20;99.90
15455;DHT22;21057;51.024;7.540;2023-09-19T04:12:21;15.30;99.90
15455;DHT22;21057;51.024;7.540;2023-09-19T04:14:48;15.10;99.90
15455;DHT22;21057;51.024;7.540;2023-09-19T04:17:15;15.20;99.90
15455;DHT22;21057;51.024;7.540;2023-09-19T04:19:43;15.20;99.90
15455;DHT22;21057;51.024;7.540;2023-09-19T04:22:11;15.30;99.90
15455;DHT22;21057;51.024;7.540;2023-09-19T04:24:38;15.30;99.90
15455;DHT22;21057;51.024;7.540;2023-09-19T04:27:05;15.20;99.90
15455;DHT22;21057;51.024;7.540;2023-09-19T04:29:32;15.30;99.90
15455;DHT22;21057;51.024;7.540;2023-09-19T04:32:00;15.20;99.90
15455;DHT22;21057;51.024;7.540;2023-09-19T04:34:29;15.10;99.90
15455;DHT22;21057;51.024;7.540;2023-09-19T04:36:58;15.20;99.90
15455;DHT22;21057;51.024;7.540;2023-09-19T04:39:26;15.20;99.90
15455;DHT22;21057;51.024;7.540;2023-09-19T04:41:53;15.20;99.90
15455;DHT22;21057;51.024;7.540;2023-09-19T04:44:20;15.20;99.90
15455;DHT22;21057;51.024;7.540;2023-09-19T04:46:47;15.20;99.90
15455;DHT22;21057;51.024;7.540;2023-09-19T04:49:14;15.20;99.90
15455;DHT22;21057;51.024;7.540;2023-09-19T04:51:41;15.10;99.90
15455;DHT22;21057;51.024;7.540;2023-09-19T04:54:09;15.10;99.90
15455;DHT22;21057;51.024;7.540;2023-09-19T04:56:36;15.20;99.90
15455;DHT22;21057;51.024;7.540;2023-09-19T04:59:06;15.20;99.90
15455;DHT22;21057;51.024;7.540;2023-09-19T05:01:32;15.20;99.90
15455;DHT22;21057;51.024;7.540;2023-09-19T05:03:59;15.30;99.90
15455;DHT22;21057;51.024;7.540;2023-09-19T05:06:26;15.30;99.90
15455;DHT22;21057;51.024;7.540;2023-09-19T05:08:53;15.10;99.90
15455;DHT22;21057;51.024;7.540;2023-09-19T05:11:21;15.00;99.90
15455;DHT22;21057;51.024;7.540;2023-09-19T05:13:50;15.00;99.90
15455;DHT22;21057;51.024;7.540;2023-09-19T05:16:18;15.20;99.90
15455;DHT22;21057;51.024;7.540;2023-09-19T05:18:45;15.30;99.90
15455;DHT22;21057;51.024;7.540;2023-09-19T05:21:12;15.30;99.90
15455;DHT22;21057;51.024;7.540;2023-09-19T05:23:39;15.20;99.90
15455;DHT22;21057;51.024;7.540;2023-09-19T05:26:06;15.10;99.90
15455;DHT22;21057;51.024;7.540;2023-09-19T05:28:34;15.10;99.90
15455;DHT22;21057;51.024;7.540;2023-09-19T05:31:01;15.20;99.90
15455;DHT22;21057;51.024;7.540;2023-09-19T05:33:28;15.20;99.90
15455;DHT22;21057;51.024;7.540;2023-09-19T05:35:56;15.10;99.90
15455;DHT22;21057;51.024;7.540;2023-09-19T05:38:23;15.10;99.90
15455;DHT22;21057;51.024;7.540;2023-09-19T05:40:52;15.10;99.90
15455;DHT22;21057;51.024;7.540;2023-09-19T05:43:19;15.00;99.90
15455;DHT22;21057;51.024;7.540;2023-09-19T05:45:47;15.10;99.90
15455;DHT22;21057;51.024;7.540;2023-09-19T05:48:16;15.00;99.90
15455;DHT22;21057;51.024;7.540;2023-09-19T05:50:43;15.20;99.90
15455;DHT22;21057;51.024;7.540;2023-09-19T05:53:12;15.20;99.90
15455;DHT22;21057;51.024;7.540;2023-09-19T05:55:40;15.10;99.90
15455;DHT22;21057;51.024;7.540;2023-09-19T05:58:07;15.00;99.90
15455;DHT22;21057;51.024;7.540;2023-09-19T06:00:35;14.80;99.90
15455;DHT22;21057;51.024;7.540;2023-09-19T06:03:04;15.00;99.90
15455;DHT22;21057;51.024;7.540;2023-09-19T06:05:31;15.20;99.90
15455;DHT22;21057;51.024;7.540;2023-09-19T06:07:58;15.40;99.90
15455;DHT22;21057;51.024;7.540;2023-09-19T06:10:25;15.40;99.90
15455;DHT22;21057;51.024;7.540;2023-09-19T06:12:53;15.40;99.90
15455;DHT22;21057;51.024;7.540;2023-09-19T06:15:21;15.30;99.90
15455;DHT22;21057;51.024;7.540;2023-09-19T06:17:51;15.30;99.90
15455;DHT22;21057;51.024;7.540;2023-09-19T06:20:22;15.40;99.90
15455;DHT22;21057;51.024;7.540;2023-09-19T06:22:51;15.30;99.90
15455;DHT22;21057;51.024;7.540;2023-09-19T06:25:19;15.30;99.90
15455;DHT22;21057;51.024;7.540;2023-09-19T06:27:46;15.30;99.90
15455;DHT22;21057;51.024;7.540;2023-09-19T06:30:14;15.20;99.90
15455;DHT22;21057;51.024;7.540;2023-09-19T06:32:41;15.30;99.90
15455;DHT22;21057;51.024;7.540;2023-09-19T06:35:09;15.30;99.90
15455;DHT22;21057;51.024;7.540;2023-09-19T06:37:38;15.40;99.90
15455;DHT22;21057;51.024;7.540;2023-09-19T06:40:08;15.40;99.90
15455;DHT22;21057;51.024;7.540;2023-09-19T06:42:39;15.60;99.90
15455;DHT22;21057;51.024;7.540;2023-09-19T06:45:07;15.50;99.90
15455;DHT22;21057;51.024;7.540;2023-09-19T06:47:37;15.50;99.90
15455;DHT22;21057;51.024;7.540;2023-09-19T06:50:04;15.40;99.90
15455;DHT22;21057;51.024;7.540;2023-09-19T06:52:32;15.40;99.90
15455;DHT22;21057;51.024;7.540;2023-09-19T06:55:00;15.50;99.90
15455;DHT22;21057;51.024;7.540;2023-09-19T06:57:28;15.70;99.90
15455;DHT22;21057;51.024;7.540;2023-09-19T06:59:56;15.60;99.90
15455;DHT22;21057;51.024;7.540;2023-09-19T07:02:22;15.40;99.90
15455;DHT22;21057;51.024;7.540;2023-09-19T07:04:49;15.40;99.90
15455;DHT22;21057;51.024;7.540;2023-09-19T07:07:18;15.40;99.90
15455;DHT22;21057;51.024;7.540;2023-09-19T07:09:45;15.50;99.90
15455;DHT22;21057;51.024;7.540;2023-09-19T07:12:15;15.60;99.90
15455;DHT22;21057;51.024;7.540;2023-09-19T07:14:42;15.70;99.90
15455;DHT22;21057;51.024;7.540;2023-09-19T07:17:09;15.70;99.90
15455;DHT22;21057;51.024;7.540;2023-09-19T07:19:37;15.70;99.90
15455;DHT22;21057;51.024;7.540;2023-09-19T07:22:04;15.70;99.90
15455;DHT22;21057;51.024;7.540;2023-09-19T07:24:30;15.70;99.90
15455;DHT22;21057;51.024;7.540;2023-09-19T07:26:58;15.80;99.90
15455;DHT22;21057;51.024;7.540;2023-09-19T07:29:26;15.80;99.90
15455;DHT22;21057;51.024;7.540;2023-09-19T07:31:53;15.80;99.90
15455;DHT22;21057;51.024;7.540;2023-09-19T07:34:20;16.00;99.90
15455;DHT22;21057;51.024;7.540;2023-09-19T07:36:48;16.10;99.90
15455;DHT22;21057;51.024;7.540;2023-09-19T07:39:15;16.10;99.90
15455;DHT22;21057;51.024;7.540;2023-09-19T07:41:42;16.20;99.90
15455;DHT22;21057;51.024;7.540;2023-09-19T07:44:09;16.00;99.90
15455;DHT22;21057;51.024;7.540;2023-09-19T07:46:37;15.70;99.90
15455;DHT22;21057;51.024;7.540;2023-09-19T07:49:04;15.90;99.90
15455;DHT22;21057;51.024;7.540;2023-09-19T07:51:31;15.90;99.90
15455;DHT22;21057;51.024;7.540;2023-09-19T07:53:59;16.00;99.90
15455;DHT22;21057;51.024;7.540;2023-09-19T07:56:26;16.20;99.90
15455;DHT22;21057;51.024;7.540;2023-09-19T07:58:53;16.30;99.90
15455;DHT22;21057;51.024;7.540;2023-09-19T08:01:20;16.40;99.90
15455;DHT22;21057;51.024;7.540;2023-09-19T08:03:50;16.20;99.90
15455;DHT22;21057;51.024;7.540;2023-09-19T08:06:17;16.30;99.90
15455;DHT22;21057;51.024;7.540;2023-09-19T08:08:44;16.50;99.90
15455;DHT22;21057;51.024;7.540;2023-09-19T08:11:11;16.50;99.90
15455;DHT22;21057;51.024;7.540;2023-09-19T08:13:38;16.50;99.90
15455;DHT22;21057;51.024;7.540;2023-09-19T08:16:09;16.60;99.90
15455;DHT22;21057;51.024;7.540;2023-09-19T08:18:35;16.60;99.90
15455;DHT22;21057;51.024;7.540;2023-09-19T08:21:04;16.40;99.90
15455;DHT22;21057;51.024;7.540;2023-09-19T08:23:33;16.60;99.90
15455;DHT22;21057;51.024;7.540;2023-09-19T08:26:00;16.60;99.90
15455;DHT22;21057;51.024;7.540;2023-09-19T08:28:32;16.50;99.90
15455;DHT22;21057;51.024;7.540;2023-09-19T08:31:01;16.60;99.90
15455;DHT22;21057;51.024;7.540;2023-09-19T08:33:31;16.50;99.90
15455;DHT22;21057;51.024;7.540;2023-09-19T08:35:58;16.60;99.90
15455;DHT22;21057;51.024;7.540;2023-09-19T08:38:26;16.70;99.90
15455;DHT22;21057;51.024;7.540;2023-09-19T08:40:57;16.90;99.90
15455;DHT22;21057;51.024;7.540;2023-09-19T08:43:24;17.10;99.90
15455;DHT22;21057;51.024;7.540;2023-09-19T08:45:52;17.30;99.90
15455;DHT22;21057;51.024;7.540;2023-09-19T08:48:23;17.30;99.90
15455;DHT22;21057;51.024;7.540;2023-09-19T08:50:55;17.20;99.90
15455;DHT22;21057;51.024;7.540;2023-09-19T08:53:33;17.00;99.90
15455;DHT22;21057;51.024;7.540;2023-09-19T08:56:03;17.10;99.90
15455;DHT22;21057;51.024;7.540;2023-09-19T08:58:42;17.30;99.90
15455;DHT22;21057;51.024;7.540;2023-09-19T09:01:13;17.30;99.90
15455;DHT22;21057;51.024;7.540;2023-09-19T09:03:43;17.30;99.90
15455;DHT22;21057;51.024;7.540;2023-09-19T09:06:14;17.40;99.90
15455;DHT22;21057;51.024;7.540;2023-09-19T09:08:44;17.80;99.90
15455;DHT22;21057;51.024;7.540;2023-09-19T09:11:11;18.00;99.90
15455;DHT22;21057;51.024;7.540;2023-09-19T09:13:40;18.20;99.90
15455;DHT22;21057;51.024;7.540;2023-09-19T09:16:10;18.30;99.90
15455;DHT22;21057;51.024;7.540;2023-09-19T09:18:41;18.00;99.90
15455;DHT22;21057;51.024;7.540;2023-09-19T09:21:09;17.70;99.90
15455;DHT22;21057;51.024;7.540;2023-09-19T09:23:36;17.80;99.90
15455;DHT22;21057;51.024;7.540;2023-09-19T09:26:05;17.70;99.90
15455;DHT22;21057;51.024;7.540;2023-09-19T09:28:34;18.00;99.90
15455;DHT22;21057;51.024;7.540;2023-09-19T09:31:04;17.90;99.90
15455;DHT22;21057;51.024;7.540;2023-09-19T09:33:34;17.80;99.90
15455;DHT22;21057;51.024;7.540;2023-09-19T09:36:03;18.10;99.90
15455;DHT22;21057;51.024;7.540;2023-09-19T09:38:43;18.10;99.90
15455;DHT22;21057;51.024;7.540;2023-09-19T09:41:12;18.30;99.90
15455;DHT22;21057;51.024;7.540;2023-09-19T09:43:53;18.50;99.90
15455;DHT22;21057;51.024;7.540;2023-09-19T09:46:21;18.60;99.90
15455;DHT22;21057;51.024;7.540;2023-09-19T09:49:06;18.60;99.90
15455;DHT22;21057;51.024;7.540;2023-09-19T09:51:59;18.20;99.90
15455;DHT22;21057;51.024;7.540;2023-09-19T09:54:27;18.30;99.90
15455;DHT22;21057;51.024;7.540;2023-09-19T09:57:02;18.30;99.90
15455;DHT22;21057;51.024;7.540;2023-09-19T09:59:46;18.20;99.90
15455;DHT22;21057;51.024;7.540;2023-09-19T10:02:14;18.70;99.90
15455;DHT22;21057;51.024;7.540;2023-09-19T10:04:49;19.50;99.90
15455;DHT22;21057;51.024;7.540;2023-09-19T10:07:26;20.30;99.90
15455;DHT22;21057;51.024;7.540;2023-09-19T10:09:58;20.40;99.90
15455;DHT22;21057;51.024;7.540;2023-09-19T10:12:33;20.40;99.90
15455;DHT22;21057;51.024;7.540;2023-09-19T10:15:04;20.90;99.90
15455;DHT22;21057;51.024;7.540;2023-09-19T10:17:34;21.40;99.90
15455;DHT22;21057;51.024;7.540;2023-09-19T10:20:03;21.70;99.90
15455;DHT22;21057;51.024;7.540;2023-09-19T10:22:46;21.60;99.90
15455;DHT22;21057;51.024;7.540;2023-09-19T10:25:24;21.30;99.90
15455;DHT22;21057;51.024;7.540;2023-09-19T10:27:57;21.80;99.90
15455;DHT22;21057;51.024;7.540;2023-09-19T10:30:29;21.60;99.90
15455;DHT22;21057;51.024;7.540;2023-09-19T10:33:00;21.00;99.90
15455;DHT22;21057;51.024;7.540;2023-09-19T10:35:28;20.60;99.90
15455;DHT22;21057;51.024;7.540;2023-09-19T10:38:00;20.20;99.90
15455;DHT22;21057;51.024;7.540;2023-09-19T10:40:28;20.20;99.90
15455;DHT22;21057;51.024;7.540;2023-09-19T10:43:03;19.80;99.90
15455;DHT22;21057;51.024;7.540;2023-09-19T10:45:33;20.60;99.90
15455;DHT22;21057;51.024;7.540;2023-09-19T10:48:00;21.30;99.90
15455;DHT22;21057;51.024;7.540;2023-09-19T10:50:31;21.50;99.90
15455;DHT22;21057;51.024;7.540;2023-09-19T10:53:00;21.70;99.90
15455;DHT22;21057;51.024;7.540;2023-09-19T10:55:31;21.80;99.90
15455;DHT22;21057;51.024;7.540;2023-09-19T10:58:02;22.10;99.90
15455;DHT22;21057;51.024;7.540;2023-09-19T11:00:53;21.50;99.90
15455;DHT22;21057;51.024;7.540;2023-09-19T11:03:22;21.40;99.90
15455;DHT22;21057;51.024;7.540;2023-09-19T11:06:04;21.20;99.90
15455;DHT22;21057;51.024;7.540;2023-09-19T11:08:52;20.50;99.90
15455;DHT22;21057;51.024;7.540;2023-09-19T11:11:42;20.30;99.90
15455;DHT22;21057;51.024;7.540;2023-09-19T11:14:40;20.40;99.90
15455;DHT22;21057;51.024;7.540;2023-09-19T11:17:41;20.40;99.90
15455;DHT22;21057;51.024;7.540;2023-09-19T11:20:24;20.00;99.90
15455;DHT22;21057;51.024;7.540;2023-09-19T11:23:22;20.00;99.90
15455;DHT22;21057;51.024;7.540;2023-09-19T11:25:50;19.90;99.90
15455;DHT22;21057;51.024;7.540;2023-09-19T11:28:32;20.30;99.90
15455;DHT22;21057;51.024;7.540;2023-09-19T11:34:40;21.00;99.90
15455;DHT22;21057;51.024;7.540;2023-09-19T11:40:37;20.70;99.90
15455;DHT22;21057;51.024;7.540;2023-09-19T11:43:28;21.00;99.90
15455;DHT22;21057;51.024;7.540;2023-09-19T11:46:05;21.20;99.90
15455;DHT22;21057;51.024;7.540;2023-09-19T11:48:32;20.70;99.90
15455;DHT22;21057;51.024;7.540;2023-09-19T11:51:17;20.50;99.90
15455;DHT22;21057;51.024;7.540;2023-09-19T11:53:53;20.30;99.90
15455;DHT22;21057;51.024;7.540;2023-09-19T11:56:21;20.20;99.90
15455;DHT22;21057;51.024;7.540;2023-09-19T11:58:50;20.20;99.90
15455;DHT22;21057;51.024;7.540;2023-09-19T12:01:24;20.20;99.90
15455;DHT22;21057;51.024;7.540;2023-09-19T12:03:56;19.90;99.90
15455;DHT22;21057;51.024;7.540;2023-09-19T12:06:24;20.10;99.90
15455;DHT22;21057;51.024;7.540;2023-09-19T12:08:51;20.30;99.90
15455;DHT22;21057;51.024;7.540;2023-09-19T12:11:21;20.30;99.90
15455;DHT22;21057;51.024;7.540;2023-09-19T12:13:49;20.90;99.90
15455;DHT22;21057;51.024;7.540;2023-09-19T12:16:18;21.40;99.90
15455;DHT22;21057;51.024;7.540;2023-09-19T12:18:49;21.50;99.90
15455;DHT22;21057;51.024;7.540;2023-09-19T12:21:24;21.60;99.90
15455;DHT22;21057;51.024;7.540;2023-09-19T12:24:11;21.40;99.90
15455;DHT22;21057;51.024;7.540;2023-09-19T12:26:40;21.10;99.90
15455;DHT22;21057;51.024;7.540;2023-09-19T12:29:16;21.00;99.90
15455;DHT22;21057;51.024;7.540;2023-09-19T12:31:48;20.90;99.90
15455;DHT22;21057;51.024;7.540;2023-09-19T12:34:20;20.90;99.90
15455;DHT22;21057;51.024;7.540;2023-09-19T12:36:48;20.80;99.90
15455;DHT22;21057;51.024;7.540;2023-09-19T12:39:24;20.80;99.90
15455;DHT22;21057;51.024;7.540;2023-09-19T12:41:52;20.90;99.90
15455;DHT22;21057;51.024;7.540;2023-09-19T12:44:20;20.70;99.90
15455;DHT22;21057;51.024;7.540;2023-09-19T12:46:50;20.60;99.90
15455;DHT22;21057;51.024;7.540;2023-09-19T12:49:19;20.50;99.90
15455;DHT22;21057;51.024;7.540;2023-09-19T12:51:46;20.70;99.90
15455;DHT22;21057;51.024;7.540;2023-09-19T12:54:13;21.00;99.90
15455;DHT22;21057;51.024;7.540;2023-09-19T12:56:42;20.90;99.90
15455;DHT22;21057;51.024;7.540;2023-09-19T12:59:11;21.50;99.90
15455;DHT22;21057;51.024;7.540;2023-09-19T13:01:39;22.50;99.90
15455;DHT22;21057;51.024;7.540;2023-09-19T13:04:11;23.30;99.40
15455;DHT22;21057;51.024;7.540;2023-09-19T13:06:42;23.40;98.60
15455;DHT22;21057;51.024;7.540;2023-09-19T13:09:10;24.40;97.70
15455;DHT22;21057;51.024;7.540;2023-09-19T13:11:37;25.10;94.70
15455;DHT22;21057;51.024;7.540;2023-09-19T13:14:17;24.80;94.40
15455;DHT22;21057;51.024;7.540;2023-09-19T13:16:58;24.00;92.80
15455;DHT22;21057;51.024;7.540;2023-09-19T13:19:35;24.60;95.10
15455;DHT22;21057;51.024;7.540;2023-09-19T13:22:04;24.40;92.10
15455;DHT22;21057;51.024;7.540;2023-09-19T13:24:32;24.70;94.30
15455;DHT22;21057;51.024;7.540;2023-09-19T13:27:00;24.30;91.70
15455;DHT22;21057;51.024;7.540;2023-09-19T13:29:29;24.00;92.80
15455;DHT22;21057;51.024;7.540;2023-09-19T13:31:55;24.10;93.50
15455;DHT22;21057;51.024;7.540;2023-09-19T13:34:22;24.20;92.90
15455;DHT22;21057;51.024;7.540;2023-09-19T13:36:50;24.40;92.00
15455;DHT22;21057;51.024;7.540;2023-09-19T13:39:18;24.10;91.30
15455;DHT22;21057;51.024;7.540;2023-09-19T13:41:46;23.80;93.00
15455;DHT22;21057;51.024;7.540;2023-09-19T13:44:14;23.50;92.30
15455;DHT22;21057;51.024;7.540;2023-09-19T13:46:48;22.70;92.30
15455;DHT22;21057;51.024;7.540;2023-09-19T13:49:16;23.40;95.00
15455;DHT22;21057;51.024;7.540;2023-09-19T13:51:43;23.50;93.10
15455;DHT22;21057;51.024;7.540;2023-09-19T13:54:10;23.50;92.70
15455;DHT22;21057;51.024;7.540;2023-09-19T13:56:39;23.30;93.50
15455;DHT22;21057;51.024;7.540;2023-09-19T13:59:06;23.80;93.70
15455;DHT22;21057;51.024;7.540;2023-09-19T14:01:33;24.20;92.20
15455;DHT22;21057;51.024;7.540;2023-09-19T14:04:00;23.90;91.30
15455;DHT22;21057;51.024;7.540;2023-09-19T14:06:28;24.00;92.30
15455;DHT22;21057;51.024;7.540;2023-09-19T14:08:54;24.00;91.60
15455;DHT22;21057;51.024;7.540;2023-09-19T14:11:21;23.80;91.90
15455;DHT22;21057;51.024;7.540;2023-09-19T14:13:49;23.20;92.40
15455;DHT22;21057;51.024;7.540;2023-09-19T14:16:17;22.90;93.70
15455;DHT22;21057;51.024;7.540;2023-09-19T14:18:45;23.30;94.50
15455;DHT22;21057;51.024;7.540;2023-09-19T14:21:12;23.60;92.70
15455;DHT22;21057;51.024;7.540;2023-09-19T14:23:40;23.50;92.80
15455;DHT22;21057;51.024;7.540;2023-09-19T14:26:09;23.00;93.20
15455;DHT22;21057;51.024;7.540;2023-09-19T14:28:35;22.50;93.60
15455;DHT22;21057;51.024;7.540;2023-09-19T14:31:06;22.60;95.80
15455;DHT22;21057;51.024;7.540;2023-09-19T14:33:33;22.10;94.10
15455;DHT22;21057;51.024;7.540;2023-09-19T14:36:03;22.40;95.10
15455;DHT22;21057;51.024;7.540;2023-09-19T14:38:32;21.40;95.20
15455;DHT22;21057;51.024;7.540;2023-09-19T14:41:00;21.10;95.50
15455;DHT22;21057;51.024;7.540;2023-09-19T14:43:27;21.20;96.40
15455;DHT22;21057;51.024;7.540;2023-09-19T14:45:55;20.90;96.80
15455;DHT22;21057;51.024;7.540;2023-09-19T14:48:24;21.00;96.60
15455;DHT22;21057;51.024;7.540;2023-09-19T14:50:52;20.90;98.20
15455;DHT22;21057;51.024;7.540;2023-09-19T14:53:20;20.80;97.50
15455;DHT22;21057;51.024;7.540;2023-09-19T14:55:47;20.70;98.30
15455;DHT22;21057;51.024;7.540;2023-09-19T14:58:17;20.60;98.90
15455;DHT22;21057;51.024;7.540;2023-09-19T15:00:44;20.60;99.20
15455;DHT22;21057;51.024;7.540;2023-09-19T15:03:11;20.70;99.90
15455;DHT22;21057;51.024;7.540;2023-09-19T15:05:40;20.60;98.80
15455;DHT22;21057;51.024;7.540;2023-09-19T15:08:07;20.70;99.90
15455;DHT22;21057;51.024;7.540;2023-09-19T15:10:33;20.90;99.80
15455;DHT22;21057;51.024;7.540;2023-09-19T15:13:00;20.80;99.40
15455;DHT22;21057;51.024;7.540;2023-09-19T15:15:27;20.50;99.20
15455;DHT22;21057;51.024;7.540;2023-09-19T15:17:54;20.70;99.80
15455;DHT22;21057;51.024;7.540;2023-09-19T15:20:21;20.60;99.90
15455;DHT22;21057;51.024;7.540;2023-09-19T15:22:50;20.50;99.90
15455;DHT22;21057;51.024;7.540;2023-09-19T15:25:16;20.50;99.50
15455;DHT22;21057;51.024;7.540;2023-09-19T15:27:43;20.70;99.90
15455;DHT22;21057;51.024;7.540;2023-09-19T15:30:11;20.70;99.80
15455;DHT22;21057;51.024;7.540;2023-09-19T15:32:40;21.20;99.90
15455;DHT22;21057;51.024;7.540;2023-09-19T15:35:08;21.30;99.00
15455;DHT22;21057;51.024;7.540;2023-09-19T15:37:39;21.20;98.60
15455;DHT22;21057;51.024;7.540;2023-09-19T15:40:08;20.90;98.30
15455;DHT22;21057;51.024;7.540;2023-09-19T15:42:39;20.50;99.20
15455;DHT22;21057;51.024;7.540;2023-09-19T15:45:06;20.40;99.20
15455;DHT22;21057;51.024;7.540;2023-09-19T15:47:35;20.20;99.30
15455;DHT22;21057;51.024;7.540;2023-09-19T15:50:03;19.90;99.90
15455;DHT22;21057;51.024;7.540;2023-09-19T15:52:30;19.80;99.90